Hauptseite
METAR-TAF:

METAR-TAF

Flughäfen :

Cranfield Airport

Cranfield, England

Breite: 52-04N, Länge: 000-37W, Höhe: 111 m

Beobachtung

Neuester Wetterbericht von vor 9 Stunden und 51 Minuten, um 17:20 UTC
Wind 7 kt aus Ost/Südost
Temperatur 9°C
Luftfeuchtigkeit 100%
Luftdruck 1025 hPa
Sichtweite: 1000 m
Geschlossene Wolkendecke in der Höhe von 200 ft
feuchter Dunst

METAR: EGTC 161720Z 11007KT 1000 BR OVC002 09/09 Q1025

Zeit: 03:11 (03:11 UTC)

Prognose

Neuester Wetterbericht von vor 13 Stunden und 13 Minuten, um 13:58 UTC
Gültige Prognose vom 16 um 15 UTC bis 16 um 19 UTC
Wind 8 kt aus Ost
Sichtweite: 2000 m
Durchbrochene Bewölkung in der Höhe von 400 ft
feuchter Dunst
Zeitweise
vom 16 um 15 UTC bis 16 um 17 UTC
Sichtweite: 6000 m
Aufgelockert bewölkt in der Höhe von 500 ft
Durchbrochene Bewölkung in der Höhe von 1500 ft

TAF: EGTC 161358Z 1615/1619 09008KT 2000 BR BKN004 TEMPO 1615/1617 6000 NSW SCT005 BKN015

Wetterbeobachtungen und Prognosen von mehr als 4000 Flughäfen (METAR und TAF Bericht).

Die verfügbaren Stationen werden durch gelbe und rote Markierungen auf der Karte dargestellt.

Führen Sie die Maus auf sie, um den Namen der Station zu sehen.

Darauf klicken, um die Beobachtung von Wetterbeobachtungen und Prognosen zu sehen.

Um die Karte zu ändern : klicken Sie auf den grünen Tasten mit einem schwarzen Kreuz Zum Vergrößern, auf den grünen Button mit einem Gedankenstrich zu verkleinern, oder auf die grünen Pfeile für benachbarte Karten.


METAR-TAF: